sensor_id;sensor_type;location;lat;lon;timestamp;pressure;altitude;pressure_sealevel;temperature;humidity
28935;BME280;16044;52.726;-2.108;2023-04-26T00:01:57;100872.63;;;7.47;69.94
28935;BME280;16044;52.726;-2.108;2023-04-26T00:04:24;100862.25;;;7.42;70.84
28935;BME280;16044;52.726;-2.108;2023-04-26T00:06:51;100858.00;;;7.40;70.65
28935;BME280;16044;52.726;-2.108;2023-04-26T00:09:18;100857.88;;;7.41;70.00
28935;BME280;16044;52.726;-2.108;2023-04-26T00:11:45;100861.69;;;7.39;70.13
28935;BME280;16044;52.726;-2.108;2023-04-26T00:14:13;100857.44;;;7.36;70.63
28935;BME280;16044;52.726;-2.108;2023-04-26T00:16:40;100853.47;;;7.40;69.63
28935;BME280;16044;52.726;-2.108;2023-04-26T00:19:07;100861.31;;;7.34;70.01
28935;BME280;16044;52.726;-2.108;2023-04-26T00:21:35;100864.69;;;7.36;69.56
28935;BME280;16044;52.726;-2.108;2023-04-26T00:24:03;100864.28;;;7.31;70.54
28935;BME280;16044;52.726;-2.108;2023-04-26T00:26:31;100864.16;;;7.22;71.01
28935;BME280;16044;52.726;-2.108;2023-04-26T00:29:00;100857.38;;;7.18;71.11
28935;BME280;16044;52.726;-2.108;2023-04-26T00:31:28;100856.97;;;7.13;71.22
28935;BME280;16044;52.726;-2.108;2023-04-26T00:33:55;100850.16;;;7.09;71.54
28935;BME280;16044;52.726;-2.108;2023-04-26T00:36:22;100854.41;;;7.12;71.31
28935;BME280;16044;52.726;-2.108;2023-04-26T00:38:49;100847.59;;;7.08;70.95
28935;BME280;16044;52.726;-2.108;2023-04-26T00:41:16;100840.34;;;7.08;70.45
28935;BME280;16044;52.726;-2.108;2023-04-26T00:43:44;100840.34;;;7.08;70.26
28935;BME280;16044;52.726;-2.108;2023-04-26T00:46:11;100841.38;;;7.07;69.98
28935;BME280;16044;52.726;-2.108;2023-04-26T00:48:38;100852.44;;;7.04;70.38
28935;BME280;16044;52.726;-2.108;2023-04-26T00:51:06;100859.25;;;6.98;71.42
28935;BME280;16044;52.726;-2.108;2023-04-26T00:53:33;100847.91;;;6.95;72.02
28935;BME280;16044;52.726;-2.108;2023-04-26T00:56:01;100853.28;;;6.95;72.07
28935;BME280;16044;52.726;-2.108;2023-04-26T00:58:29;100857.72;;;6.96;72.05
28935;BME280;16044;52.726;-2.108;2023-04-26T01:00:56;100861.50;;;6.93;72.47
28935;BME280;16044;52.726;-2.108;2023-04-26T01:03:24;100859.84;;;6.92;72.61
28935;BME280;16044;52.726;-2.108;2023-04-26T01:05:52;100859.97;;;6.91;72.82
28935;BME280;16044;52.726;-2.108;2023-04-26T01:08:20;100863.22;;;6.94;71.82
28935;BME280;16044;52.726;-2.108;2023-04-26T01:10:49;100848.19;;;6.92;72.06
28935;BME280;16044;52.726;-2.108;2023-04-26T01:13:16;100841.69;;;6.85;72.75
28935;BME280;16044;52.726;-2.108;2023-04-26T01:15:47;100845.38;;;6.83;72.42
28935;BME280;16044;52.726;-2.108;2023-04-26T01:18:14;100851.03;;;6.80;73.16
28935;BME280;16044;52.726;-2.108;2023-04-26T01:20:41;100852.03;;;6.79;72.94
28935;BME280;16044;52.726;-2.108;2023-04-26T01:23:09;100852.31;;;6.76;73.36
28935;BME280;16044;52.726;-2.108;2023-04-26T01:25:37;100848.91;;;6.74;73.65
28935;BME280;16044;52.726;-2.108;2023-04-26T01:28:04;100851.59;;;6.74;73.75
28935;BME280;16044;52.726;-2.108;2023-04-26T01:30:31;100848.91;;;6.74;73.85
28935;BME280;16044;52.726;-2.108;2023-04-26T01:32:58;100846.53;;;6.71;73.96
28935;BME280;16044;52.726;-2.108;2023-04-26T01:35:25;100844.81;;;6.70;73.96
28935;BME280;16044;52.726;-2.108;2023-04-26T01:37:53;100839.69;;;6.67;74.48
28935;BME280;16044;52.726;-2.108;2023-04-26T01:40:20;100832.75;;;6.64;74.34
28935;BME280;16044;52.726;-2.108;2023-04-26T01:42:47;100840.97;;;6.63;74.40
28935;BME280;16044;52.726;-2.108;2023-04-26T01:45:14;100844.81;;;6.60;74.65
28935;BME280;16044;52.726;-2.108;2023-04-26T01:47:41;100844.13;;;6.58;74.74
28935;BME280;16044;52.726;-2.108;2023-04-26T01:50:09;100840.00;;;6.54;75.50
28935;BME280;16044;52.726;-2.108;2023-04-26T01:52:36;100834.91;;;6.51;75.60
28935;BME280;16044;52.726;-2.108;2023-04-26T01:55:03;100827.78;;;6.50;75.61
28935;BME280;16044;52.726;-2.108;2023-04-26T01:57:31;100838.75;;;6.49;75.40
28935;BME280;16044;52.726;-2.108;2023-04-26T01:59:57;100829.22;;;6.44;75.81
28935;BME280;16044;52.726;-2.108;2023-04-26T02:02:24;100817.75;;;6.42;75.76
28935;BME280;16044;52.726;-2.108;2023-04-26T02:04:52;100824.97;;;6.42;75.19
28935;BME280;16044;52.726;-2.108;2023-04-26T02:07:19;100828.69;;;6.41;74.95
28935;BME280;16044;52.726;-2.108;2023-04-26T02:09:46;100816.63;;;6.35;75.50
28935;BME280;16044;52.726;-2.108;2023-04-26T02:12:13;100828.94;;;6.38;74.76
28935;BME280;16044;52.726;-2.108;2023-04-26T02:14:40;100815.91;;;6.33;74.88
28935;BME280;16044;52.726;-2.108;2023-04-26T02:17:10;100809.09;;;6.29;74.80
28935;BME280;16044;52.726;-2.108;2023-04-26T02:19:37;100813.06;;;6.25;75.85
28935;BME280;16044;52.726;-2.108;2023-04-26T02:22:04;100809.66;;;6.23;75.63
28935;BME280;16044;52.726;-2.108;2023-04-26T02:24:31;100812.63;;;6.20;75.83
28935;BME280;16044;52.726;-2.108;2023-04-26T02:26:59;100821.25;;;6.14;76.58
28935;BME280;16044;52.726;-2.108;2023-04-26T02:29:29;100818.44;;;6.15;75.94
28935;BME280;16044;52.726;-2.108;2023-04-26T02:32:10;100815.31;;;6.10;76.33
28935;BME280;16044;52.726;-2.108;2023-04-26T02:34:38;100810.06;;;6.09;76.34
28935;BME280;16044;52.726;-2.108;2023-04-26T02:37:05;100816.59;;;6.06;76.27
28935;BME280;16044;52.726;-2.108;2023-04-26T02:39:33;100812.03;;;6.07;76.23
28935;BME280;16044;52.726;-2.108;2023-04-26T02:42:00;100805.94;;;6.04;76.17
28935;BME280;16044;52.726;-2.108;2023-04-26T02:44:30;100803.41;;;6.03;76.28
28935;BME280;16044;52.726;-2.108;2023-04-26T02:46:57;100802.72;;;6.11;75.30
28935;BME280;16044;52.726;-2.108;2023-04-26T02:49:25;100809.09;;;6.10;75.06
28935;BME280;16044;52.726;-2.108;2023-04-26T02:51:52;100814.47;;;6.10;75.28
28935;BME280;16044;52.726;-2.108;2023-04-26T02:54:19;100803.69;;;6.10;75.57
28935;BME280;16044;52.726;-2.108;2023-04-26T02:56:46;100803.69;;;6.10;75.25
28935;BME280;16044;52.726;-2.108;2023-04-26T02:59:13;100807.94;;;6.12;74.62
28935;BME280;16044;52.726;-2.108;2023-04-26T03:01:39;100808.09;;;6.11;75.44
28935;BME280;16044;52.726;-2.108;2023-04-26T03:04:07;100809.09;;;6.10;75.82
28935;BME280;16044;52.726;-2.108;2023-04-26T03:06:34;100803.56;;;6.11;75.38
28935;BME280;16044;52.726;-2.108;2023-04-26T03:09:01;100805.41;;;6.11;74.93
28935;BME280;16044;52.726;-2.108;2023-04-26T03:11:28;100809.34;;;6.07;75.40
28935;BME280;16044;52.726;-2.108;2023-04-26T03:13:55;100800.88;;;6.11;74.63
28935;BME280;16044;52.726;-2.108;2023-04-26T03:16:22;100794.06;;;6.07;75.19
28935;BME280;16044;52.726;-2.108;2023-04-26T03:18:49;100805.69;;;6.08;74.98
28935;BME280;16044;52.726;-2.108;2023-04-26T03:21:17;100800.44;;;6.06;75.25
28935;BME280;16044;52.726;-2.108;2023-04-26T03:23:43;100796.91;;;6.05;74.91
28935;BME280;16044;52.726;-2.108;2023-04-26T03:26:11;100796.06;;;6.05;74.63
28935;BME280;16044;52.726;-2.108;2023-04-26T03:28:38;100800.56;;;6.04;74.42
28935;BME280;16044;52.726;-2.108;2023-04-26T03:31:04;100794.22;;;6.05;74.01
28935;BME280;16044;52.726;-2.108;2023-04-26T03:33:32;100789.81;;;6.04;73.57
28935;BME280;16044;52.726;-2.108;2023-04-26T03:35:58;100788.13;;;6.03;73.78
28935;BME280;16044;52.726;-2.108;2023-04-26T03:38:25;100786.97;;;6.06;73.08
28935;BME280;16044;52.726;-2.108;2023-04-26T03:40:53;100785.31;;;6.05;72.54
28935;BME280;16044;52.726;-2.108;2023-04-26T03:43:19;100791.53;;;6.05;72.26
28935;BME280;16044;52.726;-2.108;2023-04-26T03:45:48;100780.75;;;6.05;72.31
28935;BME280;16044;52.726;-2.108;2023-04-26T03:48:15;100775.50;;;6.04;72.22
28935;BME280;16044;52.726;-2.108;2023-04-26T03:50:44;100771.69;;;6.07;71.83
28935;BME280;16044;52.726;-2.108;2023-04-26T03:53:11;100772.69;;;6.05;71.67
28935;BME280;16044;52.726;-2.108;2023-04-26T03:55:38;100773.53;;;6.06;71.15
28935;BME280;16044;52.726;-2.108;2023-04-26T03:58:05;100771.69;;;6.07;70.95
28935;BME280;16044;52.726;-2.108;2023-04-26T04:00:37;100757.25;;;6.08;70.49
28935;BME280;16044;52.726;-2.108;2023-04-26T04:03:05;100752.13;;;6.04;70.33
28935;BME280;16044;52.726;-2.108;2023-04-26T04:05:33;100747.31;;;6.08;70.13
28935;BME280;16044;52.726;-2.108;2023-04-26T04:08:00;100751.72;;;6.09;69.86
28935;BME280;16044;52.726;-2.108;2023-04-26T04:10:27;100760.78;;;6.08;69.86
28935;BME280;16044;52.726;-2.108;2023-04-26T04:12:55;100764.31;;;6.09;69.53
28935;BME280;16044;52.726;-2.108;2023-04-26T04:15:22;100761.91;;;6.05;69.63
28935;BME280;16044;52.726;-2.108;2023-04-26T04:17:48;100759.38;;;6.04;69.64
28935;BME280;16044;52.726;-2.108;2023-04-26T04:20:15;100765.59;;;6.04;69.57
28935;BME280;16044;52.726;-2.108;2023-04-26T04:22:42;100755.84;;;6.03;69.52
28935;BME280;16044;52.726;-2.108;2023-04-26T04:25:10;100759.50;;;6.02;69.54
28935;BME280;16044;52.726;-2.108;2023-04-26T04:27:37;100757.81;;;6.01;69.44
28935;BME280;16044;52.726;-2.108;2023-04-26T04:30:05;100755.41;;;5.98;69.54
28935;BME280;16044;52.726;-2.108;2023-04-26T04:32:34;100765.31;;;5.98;69.63
28935;BME280;16044;52.726;-2.108;2023-04-26T04:35:02;100764.31;;;5.99;69.62
28935;BME280;16044;52.726;-2.108;2023-04-26T04:37:30;100764.19;;;6.00;69.75
28935;BME280;16044;52.726;-2.108;2023-04-26T04:40:00;100765.19;;;5.99;69.73
28935;BME280;16044;52.726;-2.108;2023-04-26T04:42:27;100766.28;;;5.97;69.98
28935;BME280;16044;52.726;-2.108;2023-04-26T04:44:54;100758.94;;;5.99;69.69
28935;BME280;16044;52.726;-2.108;2023-04-26T04:47:22;100765.31;;;5.98;69.67
28935;BME280;16044;52.726;-2.108;2023-04-26T04:49:50;100770.69;;;5.98;69.46
28935;BME280;16044;52.726;-2.108;2023-04-26T04:52:17;100774.38;;;5.97;69.75
28935;BME280;16044;52.726;-2.108;2023-04-26T04:54:45;100778.16;;;5.94;69.85
28935;BME280;16044;52.726;-2.108;2023-04-26T04:57:13;100776.44;;;5.93;69.74
28935;BME280;16044;52.726;-2.108;2023-04-26T04:59:39;100778.16;;;5.94;69.74
28935;BME280;16044;52.726;-2.108;2023-04-26T05:02:06;100784.53;;;5.93;69.99
28935;BME280;16044;52.726;-2.108;2023-04-26T05:04:33;100790.78;;;5.94;70.12
28935;BME280;16044;52.726;-2.108;2023-04-26T05:07:01;100788.94;;;5.94;70.11
28935;BME280;16044;52.726;-2.108;2023-04-26T05:09:28;100786.13;;;5.96;70.47
28935;BME280;16044;52.726;-2.108;2023-04-26T05:11:55;100783.53;;;5.94;70.74
28935;BME280;16044;52.726;-2.108;2023-04-26T05:14:22;100783.31;;;5.97;70.91
28935;BME280;16044;52.726;-2.108;2023-04-26T05:16:49;100788.38;;;6.00;70.56
28935;BME280;16044;52.726;-2.108;2023-04-26T05:19:17;100787.25;;;6.03;70.52
28935;BME280;16044;52.726;-2.108;2023-04-26T05:21:43;100784.44;;;6.04;70.91
28935;BME280;16044;52.726;-2.108;2023-04-26T05:24:10;100780.47;;;6.09;70.83
28935;BME280;16044;52.726;-2.108;2023-04-26T05:26:37;100788.53;;;6.09;71.14
28935;BME280;16044;52.726;-2.108;2023-04-26T05:29:04;100790.69;;;6.15;70.81
28935;BME280;16044;52.726;-2.108;2023-04-26T05:31:32;100786.13;;;6.15;70.87
28935;BME280;16044;52.726;-2.108;2023-04-26T05:33:59;100780.50;;;6.18;70.65
28935;BME280;16044;52.726;-2.108;2023-04-26T05:36:25;100772.56;;;6.17;71.41
28935;BME280;16044;52.726;-2.108;2023-04-26T05:38:55;100779.34;;;6.21;71.04
28935;BME280;16044;52.726;-2.108;2023-04-26T05:41:22;100781.78;;;6.24;70.92
28935;BME280;16044;52.726;-2.108;2023-04-26T05:43:49;100784.16;;;6.27;70.68
28935;BME280;16044;52.726;-2.108;2023-04-26T05:46:16;100784.72;;;6.31;70.87
28935;BME280;16044;52.726;-2.108;2023-04-26T05:48:43;100788.00;;;6.34;70.92
28935;BME280;16044;52.726;-2.108;2023-04-26T05:51:11;100794.06;;;6.36;71.44
28935;BME280;16044;52.726;-2.108;2023-04-26T05:53:38;100794.50;;;6.41;71.23
28935;BME280;16044;52.726;-2.108;2023-04-26T05:56:05;100795.78;;;6.47;71.21
28935;BME280;16044;52.726;-2.108;2023-04-26T05:58:33;100789.25;;;6.50;71.06
28935;BME280;16044;52.726;-2.108;2023-04-26T06:01:00;100797.75;;;6.55;70.84
28935;BME280;16044;52.726;-2.108;2023-04-26T06:03:27;100804.84;;;6.56;70.91
28935;BME280;16044;52.726;-2.108;2023-04-26T06:05:54;100796.47;;;6.59;70.96
28935;BME280;16044;52.726;-2.108;2023-04-26T06:08:22;100801.88;;;6.59;71.10
28935;BME280;16044;52.726;-2.108;2023-04-26T06:10:49;100814.03;;;6.63;71.16
28935;BME280;16044;52.726;-2.108;2023-04-26T06:13:16;100814.75;;;6.65;71.17
28935;BME280;16044;52.726;-2.108;2023-04-26T06:15:43;100804.69;;;6.67;71.51
28935;BME280;16044;52.726;-2.108;2023-04-26T06:18:10;100805.09;;;6.72;71.53
28935;BME280;16044;52.726;-2.108;2023-04-26T06:20:38;100809.06;;;6.78;71.43
28935;BME280;16044;52.726;-2.108;2023-04-26T06:23:05;100816.75;;;6.82;71.25
28935;BME280;16044;52.726;-2.108;2023-04-26T06:25:32;100824.22;;;6.89;71.11
28935;BME280;16044;52.726;-2.108;2023-04-26T06:27:59;100817.56;;;6.93;71.21
28935;BME280;16044;52.726;-2.108;2023-04-26T06:30:26;100817.97;;;6.98;71.07
28935;BME280;16044;52.726;-2.108;2023-04-26T06:32:54;100816.97;;;6.99;71.48
28935;BME280;16044;52.726;-2.108;2023-04-26T06:35:21;100819.09;;;7.05;70.98
28935;BME280;16044;52.726;-2.108;2023-04-26T06:37:50;100818.50;;;7.11;70.82
28935;BME280;16044;52.726;-2.108;2023-04-26T06:40:17;100811.00;;;7.15;70.62
28935;BME280;16044;52.726;-2.108;2023-04-26T06:42:44;100818.91;;;7.16;70.65
28935;BME280;16044;52.726;-2.108;2023-04-26T06:45:11;100817.31;;;7.23;70.83
28935;BME280;16044;52.726;-2.108;2023-04-26T06:47:38;100831.22;;;7.29;70.75
28935;BME280;16044;52.726;-2.108;2023-04-26T06:50:06;100833.03;;;7.38;70.54
28935;BME280;16044;52.726;-2.108;2023-04-26T06:52:34;100823.38;;;7.45;70.46
28935;BME280;16044;52.726;-2.108;2023-04-26T06:55:01;100823.59;;;7.52;70.31
28935;BME280;16044;52.726;-2.108;2023-04-26T06:57:29;100826.72;;;7.57;70.18
28935;BME280;16044;52.726;-2.108;2023-04-26T06:59:56;100828.94;;;7.61;70.30
28935;BME280;16044;52.726;-2.108;2023-04-26T07:02:23;100815.88;;;7.67;69.99
28935;BME280;16044;52.726;-2.108;2023-04-26T07:04:51;100814.69;;;7.79;69.81
28935;BME280;16044;52.726;-2.108;2023-04-26T07:07:18;100819.19;;;7.88;69.72
28935;BME280;16044;52.726;-2.108;2023-04-26T07:09:46;100812.84;;;7.97;69.66
28935;BME280;16044;52.726;-2.108;2023-04-26T07:12:13;100809.94;;;8.09;69.59
28935;BME280;16044;52.726;-2.108;2023-04-26T07:14:40;100811.72;;;8.18;69.19
28935;BME280;16044;52.726;-2.108;2023-04-26T07:17:09;100807.13;;;8.28;68.33
28935;BME280;16044;52.726;-2.108;2023-04-26T07:19:36;100808.66;;;8.31;68.21
28935;BME280;16044;52.726;-2.108;2023-04-26T07:22:03;100809.34;;;8.33;68.20
28935;BME280;16044;52.726;-2.108;2023-04-26T07:24:30;100809.41;;;8.41;67.33
28935;BME280;16044;52.726;-2.108;2023-04-26T07:26:57;100806.88;;;8.39;67.61
28935;BME280;16044;52.726;-2.108;2023-04-26T07:29:24;100810.84;;;8.45;67.35
28935;BME280;16044;52.726;-2.108;2023-04-26T07:31:51;100798.03;;;8.47;67.42
28935;BME280;16044;52.726;-2.108;2023-04-26T07:34:18;100814.47;;;8.54;66.97
28935;BME280;16044;52.726;-2.108;2023-04-26T07:36:45;100804.03;;;8.59;66.17
28935;BME280;16044;52.726;-2.108;2023-04-26T07:39:13;100803.88;;;8.61;66.29
28935;BME280;16044;52.726;-2.108;2023-04-26T07:41:41;100812.53;;;8.64;66.33
28935;BME280;16044;52.726;-2.108;2023-04-26T07:44:09;100804.63;;;8.71;65.79
28935;BME280;16044;52.726;-2.108;2023-04-26T07:46:36;100804.88;;;8.77;65.41
28935;BME280;16044;52.726;-2.108;2023-04-26T07:49:03;100808.25;;;8.80;65.12
28935;BME280;16044;52.726;-2.108;2023-04-26T07:51:30;100799.81;;;8.83;65.01
28935;BME280;16044;52.726;-2.108;2023-04-26T07:53:57;100808.00;;;8.91;64.75
28935;BME280;16044;52.726;-2.108;2023-04-26T07:56:24;100806.69;;;8.95;64.40
28935;BME280;16044;52.726;-2.108;2023-04-26T07:58:51;100804.16;;;9.02;64.29
28935;BME280;16044;52.726;-2.108;2023-04-26T08:01:18;100804.09;;;9.11;64.55
28935;BME280;16044;52.726;-2.108;2023-04-26T08:03:45;100804.97;;;9.20;64.16
28935;BME280;16044;52.726;-2.108;2023-04-26T08:06:15;100803.16;;;9.29;64.49
28935;BME280;16044;52.726;-2.108;2023-04-26T08:08:43;100810.31;;;9.38;63.76
28935;BME280;16044;52.726;-2.108;2023-04-26T08:11:16;100813.06;;;9.46;63.84
28935;BME280;16044;52.726;-2.108;2023-04-26T08:13:43;100811.41;;;9.53;62.62
28935;BME280;16044;52.726;-2.108;2023-04-26T08:16:10;100805.34;;;9.60;62.02
28935;BME280;16044;52.726;-2.108;2023-04-26T08:18:38;100813.84;;;9.65;61.72
28935;BME280;16044;52.726;-2.108;2023-04-26T08:21:05;100813.69;;;9.74;60.91
28935;BME280;16044;52.726;-2.108;2023-04-26T08:23:33;100811.00;;;9.83;60.91
28935;BME280;16044;52.726;-2.108;2023-04-26T08:26:03;100812.22;;;9.88;60.10
28935;BME280;16044;52.726;-2.108;2023-04-26T08:28:32;100804.28;;;9.95;60.00
28935;BME280;16044;52.726;-2.108;2023-04-26T08:30:59;100802.47;;;10.04;59.98
28935;BME280;16044;52.726;-2.108;2023-04-26T08:33:26;100803.47;;;10.11;59.59
28935;BME280;16044;52.726;-2.108;2023-04-26T08:35:53;100810.09;;;10.17;59.11
28935;BME280;16044;52.726;-2.108;2023-04-26T08:38:20;100811.28;;;10.22;58.45
28935;BME280;16044;52.726;-2.108;2023-04-26T08:40:50;100805.69;;;10.24;57.71
28935;BME280;16044;52.726;-2.108;2023-04-26T08:43:17;100806.91;;;10.29;56.82
28935;BME280;16044;52.726;-2.108;2023-04-26T08:45:45;100804.19;;;10.29;56.60
28935;BME280;16044;52.726;-2.108;2023-04-26T08:48:12;100810.00;;;10.34;56.88
28935;BME280;16044;52.726;-2.108;2023-04-26T08:50:44;100811.69;;;10.44;56.29
28935;BME280;16044;52.726;-2.108;2023-04-26T08:53:15;100803.56;;;10.60;54.89
28935;BME280;16044;52.726;-2.108;2023-04-26T08:55:50;100807.97;;;10.69;54.88
28935;BME280;16044;52.726;-2.108;2023-04-26T08:58:17;100802.72;;;10.84;54.28
28935;BME280;16044;52.726;-2.108;2023-04-26T09:00:45;100796.94;;;10.96;53.16
28935;BME280;16044;52.726;-2.108;2023-04-26T09:03:12;100797.41;;;11.07;53.01
28935;BME280;16044;52.726;-2.108;2023-04-26T09:05:40;100803.69;;;11.16;53.03
28935;BME280;16044;52.726;-2.108;2023-04-26T09:08:20;100800.44;;;11.29;51.26
28935;BME280;16044;52.726;-2.108;2023-04-26T09:10:48;100791.94;;;11.40;51.32
28935;BME280;16044;52.726;-2.108;2023-04-26T09:13:15;100804.09;;;11.52;49.23
28935;BME280;16044;52.726;-2.108;2023-04-26T09:15:42;100801.88;;;11.56;50.21
28935;BME280;16044;52.726;-2.108;2023-04-26T09:18:22;100795.56;;;11.64;49.59
28935;BME280;16044;52.726;-2.108;2023-04-26T09:21:06;100794.84;;;11.70;49.49
28935;BME280;16044;52.726;-2.108;2023-04-26T09:23:34;100792.34;;;11.68;47.12
28935;BME280;16044;52.726;-2.108;2023-04-26T09:26:23;100794.47;;;11.89;48.50
28935;BME280;16044;52.726;-2.108;2023-04-26T09:29:10;100790.50;;;12.00;47.51
28935;BME280;16044;52.726;-2.108;2023-04-26T09:31:42;100801.50;;;12.07;46.51
28935;BME280;16044;52.726;-2.108;2023-04-26T09:34:15;100800.16;;;12.03;45.77
28935;BME280;16044;52.726;-2.108;2023-04-26T09:36:53;100795.47;;;12.20;46.07
28935;BME280;16044;52.726;-2.108;2023-04-26T09:39:34;100795.22;;;12.29;46.70
28935;BME280;16044;52.726;-2.108;2023-04-26T09:42:03;100794.47;;;12.44;46.39
28935;BME280;16044;52.726;-2.108;2023-04-26T09:44:31;100793.34;;;12.53;45.83
28935;BME280;16044;52.726;-2.108;2023-04-26T09:47:03;100791.97;;;12.57;45.28
28935;BME280;16044;52.726;-2.108;2023-04-26T09:49:41;100783.38;;;12.68;44.66
28935;BME280;16044;52.726;-2.108;2023-04-26T09:52:14;100793.59;;;12.66;44.50
28935;BME280;16044;52.726;-2.108;2023-04-26T09:54:44;100783.00;;;12.72;44.96
28935;BME280;16044;52.726;-2.108;2023-04-26T09:57:15;100788.75;;;12.77;44.14
28935;BME280;16044;52.726;-2.108;2023-04-26T09:59:46;100784.31;;;12.76;43.74
28935;BME280;16044;52.726;-2.108;2023-04-26T10:02:17;100768.66;;;12.78;44.06
28935;BME280;16044;52.726;-2.108;2023-04-26T10:04:48;100770.66;;;12.84;43.07
28935;BME280;16044;52.726;-2.108;2023-04-26T10:07:18;100763.16;;;12.86;43.69
28935;BME280;16044;52.726;-2.108;2023-04-26T10:09:47;100759.03;;;12.90;44.09
28935;BME280;16044;52.726;-2.108;2023-04-26T10:12:17;100762.06;;;12.95;44.55
28935;BME280;16044;52.726;-2.108;2023-04-26T10:14:45;100758.28;;;12.96;43.94
28935;BME280;16044;52.726;-2.108;2023-04-26T10:17:13;100762.41;;;12.92;43.76
28935;BME280;16044;52.726;-2.108;2023-04-26T10:19:41;100758.38;;;12.88;42.30
28935;BME280;16044;52.726;-2.108;2023-04-26T10:22:33;100757.72;;;12.86;41.43
28935;BME280;16044;52.726;-2.108;2023-04-26T10:25:07;100760.78;;;12.83;41.62
28935;BME280;16044;52.726;-2.108;2023-04-26T10:30:19;100759.13;;;12.82;41.41
28935;BME280;16044;52.726;-2.108;2023-04-26T10:35:26;100763.16;;;12.86;42.32
28935;BME280;16044;52.726;-2.108;2023-04-26T10:40:30;100753.59;;;12.90;42.08
28935;BME280;16044;52.726;-2.108;2023-04-26T10:45:36;100747.03;;;12.99;41.91
28935;BME280;16044;52.726;-2.108;2023-04-26T10:53:33;100737.69;;;13.32;41.22
28935;BME280;16044;52.726;-2.108;2023-04-26T10:59:06;100733.06;;;13.32;40.90
28935;BME280;16044;52.726;-2.108;2023-04-26T11:01:59;100734.53;;;13.64;41.37
28935;BME280;16044;52.726;-2.108;2023-04-26T11:04:49;100728.34;;;13.71;40.81
28935;BME280;16044;52.726;-2.108;2023-04-26T11:07:36;100728.69;;;13.82;41.30
28935;BME280;16044;52.726;-2.108;2023-04-26T11:10:07;100728.19;;;13.94;40.96
28935;BME280;16044;52.726;-2.108;2023-04-26T11:12:40;100733.13;;;14.05;40.13
28935;BME280;16044;52.726;-2.108;2023-04-26T11:15:08;100739.09;;;14.15;40.52
28935;BME280;16044;52.726;-2.108;2023-04-26T11:17:38;100729.75;;;14.24;40.56
28935;BME280;16044;52.726;-2.108;2023-04-26T11:20:09;100740.09;;;14.29;39.84
28935;BME280;16044;52.726;-2.108;2023-04-26T11:22:41;100741.75;;;14.30;39.46
28935;BME280;16044;52.726;-2.108;2023-04-26T11:25:11;100742.34;;;14.26;39.40
28935;BME280;16044;52.726;-2.108;2023-04-26T11:27:42;100731.81;;;14.22;39.58
28935;BME280;16044;52.726;-2.108;2023-04-26T11:30:09;100726.81;;;14.26;39.33
28935;BME280;16044;52.726;-2.108;2023-04-26T11:32:37;100733.56;;;14.30;39.60
28935;BME280;16044;52.726;-2.108;2023-04-26T11:35:04;100729.22;;;14.36;39.40
28935;BME280;16044;52.726;-2.108;2023-04-26T11:37:33;100731.91;;;14.29;39.47
28935;BME280;16044;52.726;-2.108;2023-04-26T11:40:00;100723.19;;;14.40;39.42
28935;BME280;16044;52.726;-2.108;2023-04-26T11:42:27;100732.25;;;14.48;39.09
28935;BME280;16044;52.726;-2.108;2023-04-26T11:44:55;100734.16;;;14.47;39.24
28935;BME280;16044;52.726;-2.108;2023-04-26T11:47:23;100726.56;;;14.42;38.86
28935;BME280;16044;52.726;-2.108;2023-04-26T11:49:52;100729.16;;;14.51;38.56
28935;BME280;16044;52.726;-2.108;2023-04-26T11:52:19;100738.06;;;14.59;38.72
28935;BME280;16044;52.726;-2.108;2023-04-26T11:54:46;100724.03;;;14.62;38.06
28935;BME280;16044;52.726;-2.108;2023-04-26T11:57:16;100721.00;;;14.79;37.88
28935;BME280;16044;52.726;-2.108;2023-04-26T11:59:45;100714.91;;;14.77;37.70
28935;BME280;16044;52.726;-2.108;2023-04-26T12:02:12;100724.00;;;14.84;37.22
28935;BME280;16044;52.726;-2.108;2023-04-26T12:04:40;100719.13;;;14.79;37.37
28935;BME280;16044;52.726;-2.108;2023-04-26T12:07:07;100721.81;;;14.73;37.75
28935;BME280;16044;52.726;-2.108;2023-04-26T12:09:39;100718.84;;;14.74;38.42
28935;BME280;16044;52.726;-2.108;2023-04-26T12:12:10;100708.75;;;14.68;38.02
28935;BME280;16044;52.726;-2.108;2023-04-26T12:14:38;100703.38;;;14.81;38.26
28935;BME280;16044;52.726;-2.108;2023-04-26T12:17:06;100713.75;;;14.93;38.03
28935;BME280;16044;52.726;-2.108;2023-04-26T12:19:39;100721.50;;;14.89;37.79
28935;BME280;16044;52.726;-2.108;2023-04-26T12:22:07;100712.91;;;14.92;37.21
28935;BME280;16044;52.726;-2.108;2023-04-26T12:24:34;100720.84;;;14.87;36.83
28935;BME280;16044;52.726;-2.108;2023-04-26T12:27:03;100709.53;;;14.90;37.39
28935;BME280;16044;52.726;-2.108;2023-04-26T12:29:34;100714.44;;;15.01;37.18
28935;BME280;16044;52.726;-2.108;2023-04-26T12:32:01;100708.16;;;15.08;37.33
28935;BME280;16044;52.726;-2.108;2023-04-26T12:34:29;100701.50;;;15.17;36.87
28935;BME280;16044;52.726;-2.108;2023-04-26T12:36:56;100708.66;;;15.18;37.20
28935;BME280;16044;52.726;-2.108;2023-04-26T12:39:23;100704.84;;;15.12;37.37
28935;BME280;16044;52.726;-2.108;2023-04-26T12:41:50;100706.50;;;15.07;37.50
28935;BME280;16044;52.726;-2.108;2023-04-26T12:44:17;100711.09;;;15.06;37.00
28935;BME280;16044;52.726;-2.108;2023-04-26T12:46:47;100705.19;;;15.02;36.64
28935;BME280;16044;52.726;-2.108;2023-04-26T12:49:14;100707.72;;;15.04;37.13
28935;BME280;16044;52.726;-2.108;2023-04-26T12:51:42;100705.56;;;14.93;36.59
28935;BME280;16044;52.726;-2.108;2023-04-26T12:54:09;100700.00;;;14.79;37.25
28935;BME280;16044;52.726;-2.108;2023-04-26T12:56:36;100709.66;;;14.75;37.85
28935;BME280;16044;52.726;-2.108;2023-04-26T12:59:09;100707.09;;;14.74;37.69
28935;BME280;16044;52.726;-2.108;2023-04-26T13:01:36;100710.78;;;14.38;37.62
28935;BME280;16044;52.726;-2.108;2023-04-26T13:04:03;100708.13;;;14.45;37.79
28935;BME280;16044;52.726;-2.108;2023-04-26T13:06:32;100719.22;;;14.43;38.23
28935;BME280;16044;52.726;-2.108;2023-04-26T13:09:00;100719.38;;;14.35;38.39
28935;BME280;16044;52.726;-2.108;2023-04-26T13:11:27;100719.16;;;14.36;38.76
28935;BME280;16044;52.726;-2.108;2023-04-26T13:13:54;100727.66;;;14.27;37.80